This is the latest recevied weather packets stored in our database for station/object YN8O-13. If no packets are shown the sender has not sent any weather packets the latest 10 day(s).
| Time | Temp. | Humidity | Pressure | Rain* | Wind** | Luminosity | Snow |
|---|---|---|---|---|---|---|---|
| 1778004188 | 31.67° C | 26% | 1011 hPa | 0 mm | - | - | - |
| 1778002387 | 31.67° C | 28% | 1011 hPa | 0 mm | - | - | - |
| 1778001786 | 30° C | 33% | 1012 hPa | 0 mm | - | - | - |
| 1778001186 | 29.44° C | 33% | 1012 hPa | 0 mm | - | - | - |
| 1777999986 | 29.44° C | 32% | 1012 hPa | 0 mm | - | - | - |
| 1777998784 | 29.44° C | 36% | 1012 hPa | 0 mm | - | - | - |
| 1777998184 | 28.89° C | 44% | 1013 hPa | 0 mm | - | - | - |
| 1777997584 | 28.33° C | 45% | 1013 hPa | 0 mm | - | - | - |
| 1777995182 | 27.22° C | 57% | 1013 hPa | 0 mm | - | - | - |
| 1777994582 | 27.22° C | 57% | 1014 hPa | 0 mm | - | - | - |
| 1777993982 | 26.67° C | 57% | 1014 hPa | 0 mm | - | - | - |
| 1777992780 | 26.11° C | 57% | 1014 hPa | 0 mm | - | - | - |
| 1777990979 | 24.44° C | 66% | 1014 hPa | 0 mm | - | - | - |
| 1777990379 | 23.89° C | 66% | 1014 hPa | 0 mm | - | - | - |
| 1777989179 | 23.89° C | 66% | 1014 hPa | 0 mm | - | - | - |
| 1777987978 | 22.78° C | 73% | 1014 hPa | 0 mm | - | - | - |
| 1777987378 | 22.78° C | 73% | 1014 hPa | 0 mm | - | - | - |
| 1777986177 | 22.78° C | 73% | 1014 hPa | 0 mm | - | - | - |
| 1777984376 | 22.78° C | 73% | 1014 hPa | 0 mm | - | - | - |
| 1777983776 | 22.78° C | 73% | 1013 hPa | 0 mm | - | - | - |
| 1777981975 | 22.78° C | 73% | 1013 hPa | 0 mm | - | - | - |
| 1777980774 | 22.78° C | 73% | 1013 hPa | 0 mm | - | - | - |
| 1777980174 | 22.78° C | 73% | 1013 hPa | 0 mm | - | - | - |
| 1777979573 | 22.78° C | 73% | 1013 hPa | 0 mm | - | - | - |
| 1777978373 | 22.78° C | 73% | 1013 hPa | 0 mm | - | - | - |
* Rain latest hour (hover to see other rain measurements)
** Current wind speed in m/s (hover to see current wind gust speed)